Estación Meteorológica Peña el Pijo (Robertgarden) [ 09/26/18 05:14:36 CEST ]

Fecha Hora Presion(HPa) Temp (°C) Humedad % Rocio (°C) Viento ( m/s) Direccion Lluvia 1Hora(mm) Lluvia 24H(mm) LLuvia Total(mm)
2018-Sep-20 01:01:41 1015.700 13.8 83 10.9         354.31
2018-Sep-20 02:01:49 1015.500 13.0 84 10.3         354.31
2018-Sep-20 03:02:04 1015.000 12.5 85 10.0         354.31
2018-Sep-20 04:03:09 1014.700 11.8 87 9.7         354.31
2018-Sep-20 05:01:35 1014.400 11.6 87 9.5         354.31
2018-Sep-20 06:01:58 1014.400 11.0 88 9.1         354.31
2018-Sep-20 07:01:35 1014.300 11.1 88 9.2         354.31
2018-Sep-20 08:01:39 1014.400 10.9 88 9.0         354.31
2018-Sep-20 09:01:41 1014.700 12.2 90 10.6         354.31
2018-Sep-20 10:01:39 1014.700 17.6 89 15.8         354.31
2018-Sep-20 11:02:01 1014.500 24.1 62 16.4         354.31
2018-Sep-20 12:01:38 1014.400 27.9 48 15.8         354.31
2018-Sep-20 13:01:46 1014.100 29.9 39 14.5         354.31
2018-Sep-20 14:01:52 1013.600 29.3 35 12.2         354.31
2018-Sep-20 15:01:56 1013.200 30.4 35 13.1         354.31
2018-Sep-20 16:01:48 1012.800 30.8 35 13.5         354.31
2018-Sep-20 17:01:48 1012.400 28.9 39 13.6         354.31
2018-Sep-20 18:01:37 1012.200 27.6 40 12.8         354.31
2018-Sep-20 19:01:51 1012.200 24.1 46 11.7         354.31
2018-Sep-20 20:01:43 1012.000 21.3 55 11.9         354.31
2018-Sep-20 21:01:42 1012.800 18.1 66 11.6         354.31
2018-Sep-20 22:01:37 1013.200 16.4 71 11.2         354.31
2018-Sep-20 23:01:51 1013.400 14.9 76 10.7         354.31

Temperatura Máxima:30°    Temperatura Mínima:10°
Presión Máxima:1015.700 Hpa    Presión Mínima:1012.000 Hpa


Volver